Time;durP1;ratioP1;P1;durP2;ratioP2;P2;SDS_P1;SDS_P2;PMS_P1;PMS_P2;Temp;Humidity;BMP_temperature;BMP_pressure;BME280_temperature;BME280_humidity;BME280_pressure;Samples;Min_cycle;Max_cycle;Signal;HPM_P1;HPM_P2
2022/02/11 05:46:38;;;;;;;39.35;20.15;;;;;;;;;;5048141;28;20434;-63
2022/02/11 05:49:05;;;;;;;36.65;20.23;;;;;;;;;;5048337;28;20051;-63
2022/02/11 05:51:31;;;;;;;42.90;25.45;;;;;;;;;;5048235;28;20067;-63
2022/02/11 05:53:57;;;;;;;46.33;22.63;;;;;;;;;;5047975;28;20059;-63
2022/02/11 05:56:23;;;;;;;36.38;20.45;;;;;;;;;;5048157;28;20095;-64
2022/02/11 05:58:49;;;;;;;34.50;19.88;;;;;;;;;;5047854;28;20032;-63
2022/02/11 06:01:15;;;;;;;36.25;20.92;;;;;;;;;;5047894;28;20385;-63
2022/02/11 06:03:41;;;;;;;37.15;20.48;;;;;;;;;;5048004;28;20056;-63
2022/02/11 06:06:07;;;;;;;36.58;21.50;;;;;;;;;;5047871;28;20040;-63
2022/02/11 06:08:33;;;;;;;40.90;22.15;;;;;;;;;;5047920;28;20032;-62
2022/02/11 06:10:59;;;;;;;39.38;22.65;;;;;;;;;;5047235;28;20021;-62
2022/02/11 06:13:25;;;;;;;38.38;21.08;;;;;;;;;;5047357;28;20038;-63
2022/02/11 06:15:52;;;;;;;38.03;21.13;;;;;;;;;;5047901;28;20033;-63
2022/02/11 06:18:18;;;;;;;38.50;21.70;;;;;;;;;;5047658;28;20112;-64
2022/02/11 06:20:44;;;;;;;45.28;23.05;;;;;;;;;;5047364;28;20029;-63
2022/02/11 06:23:12;;;;;;;40.58;23.15;;;;;;;;;;5047549;28;20021;-63
2022/02/11 06:25:38;;;;;;;42.35;21.70;;;;;;;;;;5047447;28;20364;-64
2022/02/11 06:28:04;;;;;;;45.03;24.35;;;;;;;;;;5047350;28;20473;-63
2022/02/11 06:30:30;;;;;;;43.63;23.52;;;;;;;;;;5047311;28;20150;-64
2022/02/11 06:32:56;;;;;;;46.67;24.45;;;;;;;;;;5047009;28;20029;-63
2022/02/11 06:35:22;;;;;;;46.70;25.23;;;;;;;;;;5047277;28;20041;-63
2022/02/11 06:37:50;;;;;;;47.17;23.20;;;;;;;;;;5046937;28;20499;-63
2022/02/11 06:40:16;;;;;;;44.38;24.42;;;;;;;;;;5047195;28;20385;-63
2022/02/11 06:42:43;;;;;;;47.20;24.70;;;;;;;;;;5047474;28;20377;-64
2022/02/11 06:45:10;;;;;;;43.88;22.67;;;;;;;;;;5046573;28;20457;-63
2022/02/11 06:47:36;;;;;;;39.33;21.98;;;;;;;;;;5033669;28;20163;-62
2022/02/11 06:50:02;;;;;;;40.45;21.67;;;;;;;;;;5032474;28;20033;-65
2022/02/11 06:52:28;;;;;;;47.05;26.95;;;;;;;;;;5033644;28;20027;-62
2022/02/11 06:54:54;;;;;;;50.88;26.23;;;;;;;;;;5033574;28;20068;-62
2022/02/11 06:57:20;;;;;;;51.75;26.45;;;;;;;;;;5033558;28;20032;-63
2022/02/11 06:59:46;;;;;;;48.45;25.83;;;;;;;;;;5031392;28;20021;-61
2022/02/11 07:02:16;;;;;;;49.80;27.77;;;;;;;;;;5029273;28;20561;-61
2022/02/11 07:04:42;;;;;;;66.55;34.78;;;;;;;;;;5033776;28;20384;-62
2022/02/11 07:07:08;;;;;;;64.97;34.75;;;;;;;;;;5033231;28;20026;-61
2022/02/11 07:09:35;;;;;;;53.42;28.92;;;;;;;;;;5033359;28;20073;-63
2022/02/11 07:12:01;;;;;;;59.83;31.00;;;;;;;;;;5027410;28;20088;-64
2022/02/11 07:14:27;;;;;;;58.35;29.30;;;;;;;;;;5015928;28;20124;-61
2022/02/11 07:16:54;;;;;;;47.90;26.70;;;;;;;;;;5022248;28;20381;-63
2022/02/11 07:19:20;;;;;;;47.90;24.77;;;;;;;;;;5013395;28;20037;-63
2022/02/11 07:21:47;;;;;;;54.28;29.25;;;;;;;;;;5013621;28;20065;-63
2022/02/11 07:24:13;;;;;;;53.72;27.25;;;;;;;;;;5013821;28;20109;-62
2022/02/11 07:26:40;;;;;;;55.38;27.80;;;;;;;;;;5013896;28;20088;-62
2022/02/11 07:29:06;;;;;;;80.45;38.00;;;;;;;;;;5016594;28;20120;-64
2022/02/11 07:31:32;;;;;;;112.40;51.85;;;;;;;;;;5021278;28;20060;-62
2022/02/11 07:33:58;;;;;;;111.13;49.45;;;;;;;;;;5022815;28;20026;-63
2022/02/11 07:36:24;;;;;;;84.22;40.25;;;;;;;;;;5020577;28;20041;-63
2022/02/11 07:38:53;;;;;;;93.40;43.08;;;;;;;;;;5022139;28;20145;-63
2022/02/11 07:41:20;;;;;;;95.85;45.40;;;;;;;;;;5020288;28;20032;-62
2022/02/11 07:43:47;;;;;;;142.05;65.47;;;;;;;;;;5017475;28;20545;-62
2022/02/11 07:46:13;;;;;;;141.85;66.10;;;;;;;;;;5017685;28;20050;-62
2022/02/11 07:48:39;;;;;;;127.75;58.45;;;;;;;;;;5021520;28;20055;-61
2022/02/11 07:51:05;;;;;;;118.05;57.05;;;;;;;;;;5013122;28;20026;-62
2022/02/11 07:53:35;;;;;;;93.25;44.10;;;;;;;;;;5015180;28;20465;-62
2022/02/11 07:56:01;;;;;;;73.88;37.08;;;;;;;;;;5025940;28;20041;-62
2022/02/11 07:58:28;;;;;;;71.35;31.92;;;;;;;;;;5031567;28;20777;-65
2022/02/11 08:00:54;;;;;;;60.90;29.27;;;;;;;;;;5029119;28;20111;-66
2022/02/11 08:03:22;;;;;;;102.05;47.95;;;;;;;;;;5029990;28;20103;-62
2022/02/11 08:05:49;;;;;;;47.17;22.80;;;;;;;;;;5021252;28;20030;-62
2022/02/11 08:08:15;;;;;;;37.45;17.50;;;;;;;;;;5012483;28;20339;-63
2022/02/11 08:10:41;;;;;;;33.85;16.25;;;;;;;;;;5012337;28;20080;-62
2022/02/11 08:13:07;;;;;;;30.02;14.85;;;;;;;;;;5012419;28;20477;-63
2022/02/11 08:15:33;;;;;;;29.85;13.98;;;;;;;;;;5010976;28;20092;-60
2022/02/11 08:17:59;;;;;;;35.25;16.20;;;;;;;;;;5012684;28;20101;-61
2022/02/11 08:20:25;;;;;;;30.92;14.38;;;;;;;;;;5012116;28;20026;-64
2022/02/11 08:22:51;;;;;;;36.42;14.50;;;;;;;;;;5011784;28;20029;-61
2022/02/11 08:25:17;;;;;;;30.55;14.32;;;;;;;;;;5011216;28;20506;-66
2022/02/11 08:27:45;;;;;;;28.60;13.43;;;;;;;;;;5012233;28;20034;-62
2022/02/11 08:30:14;;;;;;;29.52;14.07;;;;;;;;;;5011934;28;20032;-63
2022/02/11 08:32:40;;;;;;;26.80;13.95;;;;;;;;;;5012359;28;20104;-62
2022/02/11 08:35:07;;;;;;;25.50;13.63;;;;;;;;;;5012101;28;20041;-63
2022/02/11 08:37:33;;;;;;;25.20;12.55;;;;;;;;;;5011713;28;20026;-63
2022/02/11 08:39:59;;;;;;;21.13;11.90;;;;;;;;;;5011824;28;20044;-63
2022/02/11 08:42:25;;;;;;;23.02;12.65;;;;;;;;;;5012093;28;20022;-63
2022/02/11 08:44:51;;;;;;;27.02;13.88;;;;;;;;;;5011155;28;20050;-62
2022/02/11 08:47:17;;;;;;;25.65;12.35;;;;;;;;;;5012061;28;20057;-65
2022/02/11 08:49:43;;;;;;;27.92;11.85;;;;;;;;;;5012013;28;20026;-64
2022/02/11 08:52:09;;;;;;;22.13;10.43;;;;;;;;;;5011762;28;20482;-64
2022/02/11 08:54:35;;;;;;;23.67;11.63;;;;;;;;;;5011933;28;20042;-63
2022/02/11 08:57:01;;;;;;;27.63;12.40;;;;;;;;;;5011769;28;20032;-64
2022/02/11 08:59:28;;;;;;;19.13;10.57;;;;;;;;;;5011696;28;20494;-64
2022/02/11 09:01:54;;;;;;;22.40;10.82;;;;;;;;;;5011548;28;20037;-63
2022/02/11 09:04:20;;;;;;;23.80;10.18;;;;;;;;;;5011661;28;20030;-64
2022/02/11 09:06:46;;;;;;;21.55;10.18;;;;;;;;;;5011219;28;20076;-64
2022/02/11 09:09:13;;;;;;;26.70;11.32;;;;;;;;;;5011420;28;20513;-64
2022/02/11 09:11:39;;;;;;;23.08;10.75;;;;;;;;;;5011229;28;20068;-64
2022/02/11 09:14:06;;;;;;;22.45;10.25;;;;;;;;;;5011242;28;20077;-65
2022/02/11 09:16:33;;;;;;;21.40;9.13;;;;;;;;;;5011435;28;20026;-63
2022/02/11 09:18:59;;;;;;;23.15;10.13;;;;;;;;;;5011296;28;20389;-63
2022/02/11 09:21:25;;;;;;;20.95;9.55;;;;;;;;;;5011413;28;20048;-67
2022/02/11 09:23:52;;;;;;;19.60;9.82;;;;;;;;;;5011351;28;20034;-66
2022/02/11 09:26:18;;;;;;;22.42;10.07;;;;;;;;;;5011414;28;20549;-64
2022/02/11 09:28:44;;;;;;;23.38;9.98;;;;;;;;;;5010951;28;20092;-61
2022/02/11 09:31:11;;;;;;;18.15;8.52;;;;;;;;;;5011336;28;20030;-63
2022/02/11 09:33:37;;;;;;;19.80;9.25;;;;;;;;;;5011198;28;20538;-63
2022/02/11 09:36:03;;;;;;;15.45;8.75;;;;;;;;;;5011289;28;20042;-63
2022/02/11 09:38:29;;;;;;;18.98;8.85;;;;;;;;;;5010996;28;20018;-63
2022/02/11 09:40:56;;;;;;;19.00;8.60;;;;;;;;;;5010882;28;20036;-64
2022/02/11 09:43:23;;;;;;;19.55;9.32;;;;;;;;;;5011320;28;20052;-65
2022/02/11 09:45:50;;;;;;;19.98;8.50;;;;;;;;;;5010828;28;20061;-65
2022/02/11 09:48:16;;;;;;;16.77;8.35;;;;;;;;;;5011581;28;20069;-65
2022/02/11 09:50:42;;;;;;;19.20;9.00;;;;;;;;;;5011416;28;20026;-63
2022/02/11 09:53:09;;;;;;;19.65;9.05;;;;;;;;;;5010865;28;20018;-63
2022/02/11 09:55:37;;;;;;;21.70;9.18;;;;;;;;;;5010883;28;20052;-64
2022/02/11 09:58:03;;;;;;;15.85;8.30;;;;;;;;;;5011219;28;20031;-63
2022/02/11 10:00:29;;;;;;;19.77;8.38;;;;;;;;;;5010671;28;20160;-65
2022/02/11 10:02:57;;;;;;;22.25;10.98;;;;;;;;;;5010792;28;20036;-64
2022/02/11 10:05:24;;;;;;;23.02;9.98;;;;;;;;;;5011234;28;20026;-64
2022/02/11 10:07:50;;;;;;;23.02;8.90;;;;;;;;;;5010810;28;20034;-64
2022/02/11 10:10:38;;;;;;;22.40;8.20;;;;;;;;;;5010764;28;20096;-65
2022/02/11 10:13:04;;;;;;;16.25;7.18;;;;;;;;;;5010718;28;20541;-65
2022/02/11 10:15:30;;;;;;;16.65;6.82;;;;;;;;;;5010782;28;20041;-66
2022/02/11 10:17:59;;;;;;;16.30;6.85;;;;;;;;;;5011047;28;20037;-64
2022/02/11 10:20:29;;;;;;;14.75;6.25;;;;;;;;;;5009647;28;20033;-64
2022/02/11 10:23:10;;;;;;;20.38;6.70;;;;;;;;;;5013271;28;20405;-63
2022/02/11 10:25:55;;;;;;;17.95;5.97;;;;;;;;;;5014514;28;20501;-64
2022/02/11 10:28:24;;;;;;;18.55;6.20;;;;;;;;;;5013629;28;20477;-62
2022/02/11 10:31:27;;;;;;;15.20;6.57;;;;;;;;;;5013939;28;20030;-64
2022/02/11 10:33:53;;;;;;;14.13;6.78;;;;;;;;;;5011746;28;20410;-64
2022/02/11 10:36:40;;;;;;;14.25;6.30;;;;;;;;;;5023723;28;20041;-64
2022/02/11 10:39:10;;;;;;;22.17;6.57;;;;;;;;;;5030573;28;20029;-63
2022/02/11 10:41:40;;;;;;;17.48;6.13;;;;;;;;;;5031328;28;20033;-64
2022/02/11 10:44:08;;;;;;;18.10;6.10;;;;;;;;;;5031516;28;20116;-64
2022/02/11 10:46:35;;;;;;;20.65;7.03;;;;;;;;;;5031045;28;20137;-65
2022/02/11 10:49:02;;;;;;;15.90;6.28;;;;;;;;;;5031167;28;20048;-64
2022/02/11 10:51:28;;;;;;;13.27;5.63;;;;;;;;;;5030350;28;20400;-65
2022/02/11 10:53:54;;;;;;;15.73;6.15;;;;;;;;;;5030871;28;20030;-64
2022/02/11 10:56:22;;;;;;;17.40;7.03;;;;;;;;;;5031445;28;20033;-64
2022/02/11 10:58:56;;;;;;;15.00;5.70;;;;;;;;;;5030978;28;20037;-65
2022/02/11 11:01:22;;;;;;;12.50;5.53;;;;;;;;;;5030530;28;20037;-64
2022/02/11 11:03:49;;;;;;;12.52;5.30;;;;;;;;;;5030945;28;20438;-65
2022/02/11 11:06:15;;;;;;;20.15;5.75;;;;;;;;;;5030799;28;20030;-63
2022/02/11 11:08:41;;;;;;;19.05;5.75;;;;;;;;;;5015830;28;20034;-63
2022/02/11 11:11:09;;;;;;;15.07;5.70;;;;;;;;;;5013593;28;20033;-63
2022/02/11 11:13:39;;;;;;;13.95;5.15;;;;;;;;;;5012692;28;20026;-63
2022/02/11 11:16:07;;;;;;;12.27;4.35;;;;;;;;;;5012657;28;20056;-63
2022/02/11 11:18:33;;;;;;;15.13;5.60;;;;;;;;;;5013631;28;20077;-63
2022/02/11 11:21:00;;;;;;;11.77;4.35;;;;;;;;;;5023246;28;20084;-64
2022/02/11 11:23:27;;;;;;;15.10;4.72;;;;;;;;;;5030888;28;20053;-63
2022/02/11 11:25:53;;;;;;;14.20;4.72;;;;;;;;;;5031809;28;20388;-63
2022/02/11 11:28:38;;;;;;;13.27;4.65;;;;;;;;;;5032168;28;20445;-63
2022/02/11 11:31:12;;;;;;;12.32;4.25;;;;;;;;;;5032420;28;20018;-64
2022/02/11 11:33:38;;;;;;;11.63;4.28;;;;;;;;;;5032120;28;20099;-65
2022/02/11 11:36:05;;;;;;;12.32;4.30;;;;;;;;;;5033078;28;20061;-64
2022/02/11 11:38:44;;;;;;;13.77;4.93;;;;;;;;;;5031953;28;20113;-64
2022/02/11 11:41:20;;;;;;;11.00;4.10;;;;;;;;;;5032543;28;20420;-64
2022/02/11 11:43:49;;;;;;;13.43;4.30;;;;;;;;;;5032603;28;20409;-64
2022/02/11 11:46:21;;;;;;;12.27;4.78;;;;;;;;;;5032432;28;20045;-64
2022/02/11 11:48:54;;;;;;;12.98;4.38;;;;;;;;;;5026510;28;20037;-64
2022/02/11 11:51:24;;;;;;;11.93;4.75;;;;;;;;;;5013865;28;20057;-64
2022/02/11 11:53:50;;;;;;;13.77;4.93;;;;;;;;;;5012545;28;20026;-64
2022/02/11 11:56:35;;;;;;;11.82;4.35;;;;;;;;;;5012831;28;20384;-64
2022/02/11 11:59:14;;;;;;;14.35;4.35;;;;;;;;;;5012859;28;20040;-63
2022/02/11 12:01:53;;;;;;;12.65;4.07;;;;;;;;;;5012286;28;20049;-64
2022/02/11 12:04:23;;;;;;;12.50;4.10;;;;;;;;;;5012031;28;20071;-63
2022/02/11 12:06:51;;;;;;;8.55;4.00;;;;;;;;;;5011547;28;20135;-64
2022/02/11 12:09:17;;;;;;;12.25;4.15;;;;;;;;;;5012254;28;20018;-65
2022/02/11 12:11:43;;;;;;;11.57;4.45;;;;;;;;;;5012404;28;20029;-66
2022/02/11 12:14:10;;;;;;;15.20;4.28;;;;;;;;;;5012054;28;20029;-65
2022/02/11 12:16:37;;;;;;;8.88;3.53;;;;;;;;;;5012550;28;20030;-65
2022/02/11 12:19:03;;;;;;;9.73;3.45;;;;;;;;;;5012339;28;20034;-64
2022/02/11 12:21:29;;;;;;;9.63;3.65;;;;;;;;;;5012261;28;20030;-64
2022/02/11 12:29:27;;;;;;;9.60;3.60;;;;;;;;;;5012275;28;20052;-64
2022/02/11 12:31:55;;;;;;;11.65;4.07;;;;;;;;;;5012188;28;20076;-64
2022/02/11 12:34:21;;;;;;;9.90;3.45;;;;;;;;;;5012045;28;20037;-64
2022/02/11 12:36:48;;;;;;;11.88;3.22;;;;;;;;;;5011986;28;20371;-64
2022/02/11 12:39:21;;;;;;;15.13;3.55;;;;;;;;;;5011918;28;20448;-64
2022/02/11 12:41:50;;;;;;;10.40;3.70;;;;;;;;;;5005256;28;20030;-65
2022/02/11 12:44:24;;;;;;;14.52;3.78;;;;;;;;;;5011069;28;20137;-65
2022/02/11 12:46:52;;;;;;;11.27;3.38;;;;;;;;;;5011947;28;20490;-64
2022/02/11 12:49:18;;;;;;;14.02;4.05;;;;;;;;;;5011451;28;20029;-65
2022/02/11 12:52:02;;;;;;;12.98;4.05;;;;;;;;;;5011804;28;20030;-64
2022/02/11 12:54:29;;;;;;;9.50;3.75;;;;;;;;;;5019062;28;20033;-64
2022/02/11 12:57:08;;;;;;;12.27;4.00;;;;;;;;;;5031857;28;20532;-65
2022/02/11 12:59:47;;;;;;;10.73;3.63;;;;;;;;;;5031249;28;20022;-66
2022/02/11 13:02:24;;;;;;;11.45;4.43;;;;;;;;;;5031109;28;20053;-66
2022/02/11 13:05:01;;;;;;;14.98;3.88;;;;;;;;;;5031364;28;20026;-65
2022/02/11 13:07:28;;;;;;;8.88;3.42;;;;;;;;;;5031048;28;20068;-67
2022/02/11 13:09:55;;;;;;;6.80;3.42;;;;;;;;;;5030745;28;20060;-66
2022/02/11 13:12:21;;;;;;;7.45;3.40;;;;;;;;;;5031057;28;20389;-67
2022/02/11 13:14:47;;;;;;;9.60;3.50;;;;;;;;;;5031145;28;20428;-68
2022/02/11 13:17:13;;;;;;;11.65;3.97;;;;;;;;;;5030620;28;20115;-67
2022/02/11 13:19:39;;;;;;;9.63;3.55;;;;;;;;;;5030699;28;20021;-67
2022/02/11 13:22:05;;;;;;;11.40;3.70;;;;;;;;;;5030656;28;20057;-68
2022/02/11 13:24:32;;;;;;;10.50;3.65;;;;;;;;;;5030527;28;20036;-68
2022/02/11 13:27:01;;;;;;;13.60;4.28;;;;;;;;;;5031087;28;20079;-68
2022/02/11 13:29:27;;;;;;;12.27;3.80;;;;;;;;;;5030914;28;20068;-65
2022/02/11 13:31:54;;;;;;;12.48;3.60;;;;;;;;;;5030971;28;20032;-67
2022/02/11 13:34:20;;;;;;;14.70;4.72;;;;;;;;;;5031140;28;20029;-65
2022/02/11 13:36:48;;;;;;;12.10;4.03;;;;;;;;;;5029869;28;20489;-68
2022/02/11 13:39:30;;;;;;;12.25;4.93;;;;;;;;;;5030974;28;20021;-67
2022/02/11 13:41:57;;;;;;;12.88;5.13;;;;;;;;;;5030567;28;20021;-68
2022/02/11 13:44:23;;;;;;;16.45;5.60;;;;;;;;;;5030350;28;20469;-67
2022/02/11 13:46:51;;;;;;;11.35;4.43;;;;;;;;;;5030972;28;20018;-64
2022/02/11 13:49:17;;;;;;;10.77;4.40;;;;;;;;;;5029929;28;20485;-67
2022/02/11 13:53:01;;;;;;;12.65;4.95;;;;;;;;;;5030496;28;20092;-66
2022/02/11 13:54:30;;;;;;;15.88;5.47;;;;;;;;;;5030522;28;20046;-67
2022/02/11 13:56:56;;;;;;;13.10;4.57;;;;;;;;;;5033336;28;20028;-68
2022/02/11 13:59:26;;;;;;;10.07;4.63;;;;;;;;;;5034676;28;20032;-63
2022/02/11 14:02:05;;;;;;;11.68;4.63;;;;;;;;;;5034279;28;20150;-64
2022/02/11 14:04:33;;;;;;;12.63;4.57;;;;;;;;;;5034743;28;20036;-67
2022/02/11 14:07:00;;;;;;;14.52;5.00;;;;;;;;;;5034630;28;20393;-65
2022/02/11 14:09:29;;;;;;;14.20;4.90;;;;;;;;;;5034693;28;20026;-69
2022/02/11 14:11:56;;;;;;;14.20;4.85;;;;;;;;;;5034222;28;20022;-65
2022/02/11 14:14:23;;;;;;;16.05;6.28;;;;;;;;;;5034363;28;20103;-65
2022/02/11 14:16:49;;;;;;;14.95;5.32;;;;;;;;;;5034214;28;20033;-66
2022/02/11 14:19:16;;;;;;;12.80;4.97;;;;;;;;;;5034554;28;20091;-66
2022/02/11 14:21:42;;;;;;;13.13;5.30;;;;;;;;;;5033662;28;20029;-72
2022/02/11 14:24:09;;;;;;;13.73;5.75;;;;;;;;;;5033190;28;20026;-66
2022/02/11 14:26:36;;;;;;;12.85;5.75;;;;;;;;;;5034037;28;20029;-66
2022/02/11 14:29:03;;;;;;;15.38;6.35;;;;;;;;;;5034064;28;20021;-65
2022/02/11 14:31:30;;;;;;;20.20;6.88;;;;;;;;;;5023829;28;20474;-66
2022/02/11 14:33:56;;;;;;;13.20;5.90;;;;;;;;;;5014431;28;20117;-68
2022/02/11 14:36:22;;;;;;;17.75;7.20;;;;;;;;;;5014324;28;20038;-66
2022/02/11 14:38:48;;;;;;;28.50;10.90;;;;;;;;;;5014079;28;20026;-67
2022/02/11 14:43:59;;;;;;;23.88;9.65;;;;;;;;;;5014273;28;20469;-65
2022/02/11 14:46:25;;;;;;;19.52;8.32;;;;;;;;;;5014076;28;20050;-65
2022/02/11 14:48:53;;;;;;;21.67;8.65;;;;;;;;;;5014106;28;20109;-65
2022/02/11 14:51:19;;;;;;;20.45;8.25;;;;;;;;;;5012740;28;20363;-65
2022/02/11 14:53:45;;;;;;;18.95;7.10;;;;;;;;;;5014297;28;20033;-65
2022/02/11 14:56:11;;;;;;;19.00;7.00;;;;;;;;;;5013805;28;20085;-65
2022/02/11 14:58:37;;;;;;;17.58;6.85;;;;;;;;;;5013792;28;20026;-65
2022/02/11 15:01:06;;;;;;;15.63;6.80;;;;;;;;;;5012856;28;20060;-65
2022/02/11 15:03:32;;;;;;;16.42;6.88;;;;;;;;;;5013937;28;20022;-65
2022/02/11 15:05:59;;;;;;;14.93;6.25;;;;;;;;;;5013827;28;20109;-66
2022/02/11 15:08:25;;;;;;;17.02;6.88;;;;;;;;;;5013469;28;20101;-66
2022/02/11 15:10:51;;;;;;;15.68;6.05;;;;;;;;;;5013944;28;20037;-65
2022/02/11 15:13:17;;;;;;;13.50;6.20;;;;;;;;;;5013737;28;20026;-65
2022/02/11 15:15:43;;;;;;;16.20;6.78;;;;;;;;;;5013304;28;20074;-65
2022/02/11 15:18:09;;;;;;;16.70;6.82;;;;;;;;;;5013477;28;20065;-65
2022/02/11 15:20:38;;;;;;;18.98;7.80;;;;;;;;;;5013444;28;20048;-65
2022/02/11 15:23:05;;;;;;;16.25;7.20;;;;;;;;;;5013337;28;20068;-65
2022/02/11 15:25:31;;;;;;;14.57;6.07;;;;;;;;;;5013549;28;20037;-66
2022/02/11 15:27:57;;;;;;;12.40;6.35;;;;;;;;;;5013379;28;20105;-66
2022/02/11 15:30:23;;;;;;;12.65;5.97;;;;;;;;;;5013046;28;20030;-65
2022/02/11 15:32:49;;;;;;;14.15;5.97;;;;;;;;;;5013059;28;20108;-65
2022/02/11 15:35:15;;;;;;;16.38;7.35;;;;;;;;;;5012894;28;20034;-65
2022/02/11 15:37:41;;;;;;;16.73;7.07;;;;;;;;;;5013142;28;20033;-65
2022/02/11 15:40:08;;;;;;;20.50;6.95;;;;;;;;;;5012991;28;20465;-65
2022/02/11 15:42:35;;;;;;;13.88;6.88;;;;;;;;;;5013087;28;20048;-66
2022/02/11 15:45:01;;;;;;;16.63;6.75;;;;;;;;;;5013046;28;20061;-65
2022/02/11 15:47:28;;;;;;;17.77;7.75;;;;;;;;;;5012989;28;20038;-65
2022/02/11 15:49:55;;;;;;;15.30;7.20;;;;;;;;;;5013028;28;20073;-65
2022/02/11 15:52:21;;;;;;;16.75;7.45;;;;;;;;;;5012770;28;20025;-65
2022/02/11 15:54:47;;;;;;;16.50;7.65;;;;;;;;;;5012467;28;20070;-65
2022/02/11 15:57:14;;;;;;;16.27;8.10;;;;;;;;;;5012951;28;20021;-65
2022/02/11 15:59:42;;;;;;;18.13;8.18;;;;;;;;;;5012818;28;20109;-65
2022/02/11 16:02:08;;;;;;;18.67;8.57;;;;;;;;;;5012509;28;20501;-65
2022/02/11 16:04:34;;;;;;;19.95;8.80;;;;;;;;;;5012373;28;20022;-65
2022/02/11 16:07:00;;;;;;;21.40;9.70;;;;;;;;;;5012933;28;20403;-65
2022/02/11 16:09:27;;;;;;;22.90;10.10;;;;;;;;;;5012630;28;20026;-65
2022/02/11 16:11:55;;;;;;;22.50;9.65;;;;;;;;;;5012266;28;20474;-65
2022/02/11 16:14:22;;;;;;;24.95;10.90;;;;;;;;;;5012625;28;20038;-65
2022/02/11 16:16:48;;;;;;;28.02;11.57;;;;;;;;;;5012582;28;20490;-65
2022/02/11 16:19:15;;;;;;;26.73;12.18;;;;;;;;;;5011651;28;20417;-65
2022/02/11 16:21:41;;;;;;;30.10;13.20;;;;;;;;;;5012734;28;20105;-65
2022/02/11 16:24:09;;;;;;;30.13;12.68;;;;;;;;;;5012167;28;20029;-66
2022/02/11 16:26:35;;;;;;;32.10;13.25;;;;;;;;;;5012356;28;20072;-66
2022/02/11 16:29:01;;;;;;;40.17;14.43;;;;;;;;;;5012084;28;20041;-65
2022/02/11 16:31:28;;;;;;;38.28;17.20;;;;;;;;;;5012200;28;20384;-65
2022/02/11 16:33:54;;;;;;;38.35;16.15;;;;;;;;;;5012275;28;20045;-65
2022/02/11 16:36:21;;;;;;;39.35;16.08;;;;;;;;;;5011997;28;20038;-65
2022/02/11 16:38:48;;;;;;;42.00;16.75;;;;;;;;;;5011957;28;20034;-66
2022/02/11 16:41:14;;;;;;;40.10;16.83;;;;;;;;;;5011840;28;20097;-65
2022/02/11 16:43:41;;;;;;;46.35;17.02;;;;;;;;;;5012037;28;20026;-65
2022/02/11 16:46:08;;;;;;;37.67;16.35;;;;;;;;;;5011825;28;20054;-65
2022/02/11 16:48:34;;;;;;;34.58;16.85;;;;;;;;;;5011963;28;20022;-65
2022/02/11 16:51:00;;;;;;;34.70;16.48;;;;;;;;;;5011715;28;20037;-65
2022/02/11 16:53:27;;;;;;;38.63;17.13;;;;;;;;;;5011631;28;20026;-65
2022/02/11 16:55:53;;;;;;;40.30;16.55;;;;;;;;;;5011659;28;20041;-65
2022/02/11 16:58:19;;;;;;;50.95;18.65;;;;;;;;;;5011685;28;20517;-65
2022/02/11 17:00:45;;;;;;;47.83;19.77;;;;;;;;;;5011312;28;20030;-65
2022/02/11 17:03:11;;;;;;;41.35;20.77;;;;;;;;;;5011281;28;20464;-65
2022/02/11 17:05:38;;;;;;;50.13;21.85;;;;;;;;;;5011528;28;20037;-65
2022/02/11 17:08:04;;;;;;;50.35;22.63;;;;;;;;;;5011446;28;20034;-65
2022/02/11 17:10:30;;;;;;;49.30;21.65;;;;;;;;;;5011379;28;20465;-66
2022/02/11 17:12:57;;;;;;;47.90;22.73;;;;;;;;;;5011519;28;20030;-66
2022/02/11 17:15:23;;;;;;;49.97;21.75;;;;;;;;;;5011388;28;20049;-66
2022/02/11 17:17:49;;;;;;;45.72;21.85;;;;;;;;;;5011284;28;20478;-66
2022/02/11 17:20:16;;;;;;;44.63;20.98;;;;;;;;;;5011408;28;20431;-64
2022/02/11 17:22:43;;;;;;;47.92;21.70;;;;;;;;;;5011140;28;20025;-66
2022/02/11 17:25:09;;;;;;;45.80;21.05;;;;;;;;;;5011155;28;20026;-65
2022/02/11 17:27:37;;;;;;;43.75;20.23;;;;;;;;;;5011145;28;20389;-65
2022/02/11 17:30:04;;;;;;;45.05;19.63;;;;;;;;;;5011606;28;20040;-65
2022/02/11 17:32:30;;;;;;;47.58;20.42;;;;;;;;;;5011337;28;20029;-65
2022/02/11 17:34:56;;;;;;;38.92;18.10;;;;;;;;;;5011192;28;20382;-65
2022/02/11 17:37:22;;;;;;;40.75;18.23;;;;;;;;;;5010996;28;20034;-65
2022/02/11 17:39:48;;;;;;;44.90;20.42;;;;;;;;;;5011179;28;20034;-65
2022/02/11 17:42:15;;;;;;;50.22;20.65;;;;;;;;;;5011308;28;20030;-65
2022/02/11 17:44:42;;;;;;;46.13;21.88;;;;;;;;;;5010988;28;20042;-65
2022/02/11 17:47:10;;;;;;;44.67;21.25;;;;;;;;;;5011531;28;20383;-65
2022/02/11 17:49:36;;;;;;;48.30;22.55;;;;;;;;;;5011076;28;20029;-65
2022/02/11 17:52:04;;;;;;;49.85;22.45;;;;;;;;;;5010863;28;20106;-65
2022/02/11 17:54:30;;;;;;;47.97;22.95;;;;;;;;;;5010814;28;20058;-65
2022/02/11 17:56:56;;;;;;;86.05;42.70;;;;;;;;;;5011249;28;20033;-65
2022/02/11 17:59:22;;;;;;;70.47;35.08;;;;;;;;;;5011134;28;20413;-65
2022/02/11 18:01:49;;;;;;;64.22;30.20;;;;;;;;;;5010776;28;20497;-65
2022/02/11 18:04:15;;;;;;;55.20;27.55;;;;;;;;;;5009411;28;20343;-65
2022/02/11 18:06:41;;;;;;;57.13;26.17;;;;;;;;;;5010836;28;20048;-65
2022/02/11 18:09:07;;;;;;;44.28;22.05;;;;;;;;;;5010601;28;20017;-65
2022/02/11 18:11:33;;;;;;;50.85;23.75;;;;;;;;;;5010659;28;20026;-65
2022/02/11 18:14:00;;;;;;;45.53;21.27;;;;;;;;;;5010394;28;20022;-65
2022/02/11 18:16:26;;;;;;;43.00;18.40;;;;;;;;;;5010759;28;20042;-64
2022/02/11 18:18:52;;;;;;;43.95;18.92;;;;;;;;;;5010553;28;20030;-64
2022/02/11 18:21:21;;;;;;;48.53;20.10;;;;;;;;;;5010566;28;20478;-64
2022/02/11 18:23:48;;;;;;;40.70;18.80;;;;;;;;;;5010253;28;20485;-64
2022/02/11 18:26:16;;;;;;;38.85;17.42;;;;;;;;;;5010599;28;20025;-64
2022/02/11 18:28:42;;;;;;;40.60;17.58;;;;;;;;;;5010821;28;20022;-65
2022/02/11 18:31:09;;;;;;;37.83;17.00;;;;;;;;;;5010378;28;20033;-65
2022/02/11 18:33:35;;;;;;;38.90;18.10;;;;;;;;;;5010683;28;20331;-65
2022/02/11 18:36:01;;;;;;;42.47;17.63;;;;;;;;;;5010391;28;20045;-65
2022/02/11 18:38:27;;;;;;;42.92;19.58;;;;;;;;;;5010554;28;20022;-65
2022/02/11 18:40:53;;;;;;;51.72;21.73;;;;;;;;;;5010125;28;20092;-65
2022/02/11 18:43:19;;;;;;;28.33;12.95;;;;;;;;;;5012512;28;20388;-65
2022/02/11 18:45:48;;;;;;;51.85;19.80;;;;;;;;;;5013704;28;20152;-66
2022/02/11 18:48:21;;;;;;;36.00;17.27;;;;;;;;;;5013844;28;20022;-65
2022/02/11 18:50:47;;;;;;;34.33;15.35;;;;;;;;;;5014218;28;20018;-65
2022/02/11 18:53:13;;;;;;;28.60;13.38;;;;;;;;;;5013962;28;20041;-65
2022/02/11 18:55:40;;;;;;;30.00;12.23;;;;;;;;;;5014196;28;20042;-65
2022/02/11 18:58:06;;;;;;;28.70;13.60;;;;;;;;;;5014126;28;20054;-65
2022/02/11 19:00:33;;;;;;;27.40;11.80;;;;;;;;;;5013824;28;20033;-65
2022/02/11 19:02:59;;;;;;;25.77;12.38;;;;;;;;;;5013945;28;20049;-65
2022/02/11 19:05:27;;;;;;;25.73;13.50;;;;;;;;;;5013598;28;20080;-65
2022/02/11 19:07:53;;;;;;;30.48;13.45;;;;;;;;;;5013510;28;20081;-65
2022/02/11 19:10:20;;;;;;;32.50;14.32;;;;;;;;;;5013591;28;20026;-65
2022/02/11 19:12:47;;;;;;;36.13;16.13;;;;;;;;;;5012019;28;20050;-65
2022/02/11 19:15:13;;;;;;;37.53;15.77;;;;;;;;;;5013446;28;20450;-65
2022/02/11 19:17:40;;;;;;;31.65;14.60;;;;;;;;;;5013530;28;20025;-65
2022/02/11 19:20:10;;;;;;;33.22;14.93;;;;;;;;;;5013405;28;20029;-65
2022/02/11 19:22:36;;;;;;;29.30;13.50;;;;;;;;;;5013271;28;20026;-65
2022/02/11 19:25:03;;;;;;;30.50;14.43;;;;;;;;;;5013214;28;20104;-65
2022/02/11 19:27:30;;;;;;;37.97;15.20;;;;;;;;;;5011954;28;20083;-65
2022/02/11 19:29:56;;;;;;;31.10;14.48;;;;;;;;;;5012785;28;20079;-65
2022/02/11 19:32:23;;;;;;;32.30;15.15;;;;;;;;;;5013128;28;20053;-65
2022/02/11 19:34:49;;;;;;;36.30;14.93;;;;;;;;;;5012912;28;20073;-65
2022/02/11 19:37:16;;;;;;;30.55;14.52;;;;;;;;;;5013279;28;20058;-65
2022/02/11 19:39:43;;;;;;;32.13;15.68;;;;;;;;;;5012668;28;20509;-65
2022/02/11 19:42:10;;;;;;;33.20;14.10;;;;;;;;;;5012849;28;20026;-65
2022/02/11 19:44:36;;;;;;;27.40;12.60;;;;;;;;;;5012653;28;20033;-64
2022/02/11 19:47:06;;;;;;;32.40;12.90;;;;;;;;;;5012856;28;20056;-65
2022/02/11 19:49:33;;;;;;;22.50;11.82;;;;;;;;;;5012651;28;20040;-65
2022/02/11 19:51:59;;;;;;;29.95;13.15;;;;;;;;;;5012632;28;20128;-65
2022/02/11 19:54:25;;;;;;;25.35;10.43;;;;;;;;;;5012649;28;20355;-65
2022/02/11 19:56:52;;;;;;;22.40;10.00;;;;;;;;;;5013065;28;20450;-64
2022/02/11 19:59:18;;;;;;;25.02;10.70;;;;;;;;;;5012478;28;20025;-64
2022/02/11 20:01:49;;;;;;;18.40;10.15;;;;;;;;;;5012774;28;20032;-64
2022/02/11 20:04:16;;;;;;;23.50;10.70;;;;;;;;;;5012400;28;20057;-64
2022/02/11 20:06:42;;;;;;;22.83;10.35;;;;;;;;;;5012546;28;20025;-64
2022/02/11 20:09:08;;;;;;;22.58;10.32;;;;;;;;;;5012605;28;20113;-64
2022/02/11 20:11:34;;;;;;;18.35;9.85;;;;;;;;;;5012439;28;20030;-64
2022/02/11 20:14:01;;;;;;;25.17;10.00;;;;;;;;;;5012302;28;20040;-64
2022/02/11 20:16:27;;;;;;;22.15;11.02;;;;;;;;;;5012311;28;20041;-64
2022/02/11 20:18:53;;;;;;;21.95;9.80;;;;;;;;;;5012536;28;20026;-64